Terminal Aerodrome Forecast
Issued by NWS

Current Version | Previous Version | Graphics & Text | Print | Product List | Glossary On
Versions: 1 2 3 4 5 6 7 8 9 10 11 12 13 14 15 16 17 18 19 20 21 22 23 24 25
000
FTUS41 KRLX 010702 AAA
TAFCKB
TAF AMD
KCKB 010702Z 0107/0206 28010KT P6SM SCT025 BKN060
      TEMPO 0107/0110 28010G19KT
     FM011000 26010KT P6SM BKN035
     FM011300 26009G15KT P6SM OVC030
     FM020000 26008G14KT P6SM OVC035
     FM020100 26007KT P6SM OVC035=

USA.gov is the U.S. government's official web portal to all federal, state and local government web resources and services.